Runway excursion Accident Learjet 55 N558RA,
ASN logo
ASN Wikibase Occurrence # 349825
 
This information is added by users of ASN. Neither ASN nor the Flight Safety Foundation are responsible for the completeness or correctness of this information. If you feel this information is incomplete or incorrect, you can submit corrected information.

Date:Thursday 11 January 2024
Time:c. 08:37
Type:Silhouette image of generic LJ55 model; specific model in this crash may look slightly different    
Learjet 55
Owner/operator:Royal Air Freight
Registration: N558RA
MSN: 55-086
Year of manufacture:1983
Fatalities:Fatalities: 0 / Occupants: 2
Aircraft damage: Substantial
Category:Accident
Location:Mission Field Airport (LVM/KLVM), Livingston, MT -   United States of America
Phase: Landing
Nature:Ferry/positioning
Departure airport:Pontiac-Oakland County International Airport, MI (PTK/KPTK)
Destination airport:Livingston-Mission Field, MT (LVM/KLVM)
Investigating agency: NTSB
Confidence Rating: Information verified through data from accident investigation authorities
Narrative:
Royal Air Freight flight RAX698, a Learjet 55, suffered a runway excursion after landing on runway 22 at Mission Field Airport (LVM/KLVM), Livingston, Montana. The aircraft sustained substantial damage and the two pilots onboard the airplane were not injured.

Runway 22 is a 1738 m [5701 ft] long asphalt runway.

METARs:
At 0753 LT: KLVM 111453Z AUTO 09012KT 10SM OVC019 M16/M19 A2967 RMK AO2 SLP127 60000 T11611189 53012
At 0853 LT: KLVM 111553Z AUTO 09012KT 10SM OVC019 M17/M19 A2968 RMK AO2 SLP131 T11671194

METAR:

KLVM 111553Z AUTO 09012KT 10SM OVC019 M17/M19 A2968 RMK AO2 SLP131 T11671194
KLVM 111453Z AUTO 09012KT 10SM OVC019 M16/M19 A2967 RMK AO2 SLP127 60000 T11611189 53012

Accident investigation:
cover
  
Investigating agency: NTSB
Report number: 
Status: Preliminary report
Duration:
Download report: Preliminary report

Sources:

https://www.krtv.com/news/montana-and-regional-news/small-plane-ends-up-in-a-ravine-at-livingston-airport
https://www.kbzk.com/news/local-news/airplane-crashes-at-livingston-airport-after-missing-runway-passengers-injured

NTSB
https://www.flightaware.com/live/flight/RAX698/history/20240111/1145Z/KPTK/KLVM
https://www.flightradar24.com/data/flights/rax698#33954ab0

Location

Revision history:

Date/timeContributorUpdates
12-Jan-2024 03:43 Geno Added
12-Jan-2024 07:31 gianniprof Updated [Date]
12-Jan-2024 07:37 harro Updated [Aircraft type, Registration, Cn, Operator, Other fatalities, Departure airport, Source, Damage, Narrative]
12-Jan-2024 07:41 harro Updated [Other fatalities, Source, Narrative]
12-Jan-2024 07:45 harro Updated [Other fatalities, Narrative, Category]
12-Jan-2024 14:40 Anon. Updated [Narrative]
25-Jan-2024 20:36 Iceman 29 Updated [Country, Embed code]
27-Jan-2024 09:40 Captain Adam Updated [Country, Nature, Source, Embed code, Narrative, Accident report]

Corrections or additions? ... Edit this accident description

The Aviation Safety Network is an exclusive service provided by:
Quick Links:

CONNECT WITH US: FSF on social media FSF Facebook FSF Twitter FSF Youtube FSF LinkedIn FSF Instagram

©2024 Flight Safety Foundation

1920 Ballenger Av, 4th Fl.
Alexandria, Virginia 22314
www.FlightSafety.org